Date,TemperatureHighF,TemperatureAvgF,TemperatureLowF,DewpointHighF,DewpointAvgF,DewpointLowF,HumidityHigh,HumidityAvg,HumidityLow,PressureMaxIn,PressureMinIn,WindSpeedMaxMPH,WindSpeedAvgMPH,GustSpeedMaxMPH,PrecipitationSumIn
2013-1-1,26,19,8,24,12,-1,92,74,64,29.86,29.67,18,5,35,0.00
2013-1-2,16,9,-4,12,3,-9,85,77,62,30.11,29.85,20,3,23,0.00
2013-1-3,18,10,-4,15,-1,-12,89,65,30,30.13,29.97,18,3,32,0.01
2013-1-4,27,24,18,20,18,15,90,81,73,29.95,29.77,23,5,39,0.01
2013-1-5,29,24,17,21,18,13,88,76,58,30.20,29.79,19,3,33,0.00
2013-1-6,30,26,17,26,22,14,91,84,80,30.14,29.90,14,3,27,0.02
2013-1-7,30,23,15,27,18,12,90,80,55,30.33,29.94,10,2,25,0.01
2013-1-8,35,31,26,20,19,17,77,61,49,30.33,30.21,26,4,30,0.00
2013-1-9,40,32,21,32,23,16,83,70,52,30.32,29.96,26,3,41,0.00
2013-1-10,34,30,25,28,21,19,81,69,59,30.50,30.01,14,5,36,0.01
2013-1-11,31,27,20,31,22,15,97,82,66,30.48,30.14,10,2,18,0.14
2013-1-12,40,35,31,40,34,31,98,97,96,30.15,30.08,8,0,9,0.00
2013-1-13,56,43,35,49,42,34,98,94,77,30.09,29.91,16,2,32,0.00
2013-1-14,52,38,27,51,34,20,98,86,70,30.21,29.80,12,3,27,0.07
2013-1-15,29,26,22,21,20,18,87,78,69,30.29,30.15,6,1,12,0.00
2013-1-16,30,26,22,28,23,19,95,90,80,30.20,29.77,13,1,20,0.28
2013-1-17,30,24,14,24,17,2,87,77,58,30.05,29.78,13,3,29,0.02
2013-1-18,14,10,4,4,-3,-10,69,58,49,30.37,30.00,14,4,38,0.00
2013-1-19,39,28,13,23,16,4,70,61,47,30.27,29.79,12,4,30,0.00
2013-1-20,40,29,12,29,19,6,90,67,50,29.85,29.48,15,6,42,0.07
2013-1-21,17,12,9,11,5,-1,89,74,57,29.99,29.74,13,2,21,0.01
2013-1-22,14,7,0,10,0,-10,88,75,62,30.02,29.73,12,2,18,0.03
2013-1-23,2,-3,-6,-6,-13,-16,74,61,49,30.11,30.00,12,3,23,0.00
2013-1-24,7,0,-8,-9,-12,-15,76,58,45,30.25,30.06,32,6,32,0.00
2013-1-25,14,6,-3,3,-9,-15,84,52,31,30.31,30.05,11,2,41,0.01
2013-1-26,12,6,1,2,-3,-8,84,68,42,30.24,30.01,15,4,23,0.00
2013-1-27,19,11,5,0,-2,-4,74,57,41,30.46,30.24,21,4,28,0.00
2013-1-28,19,15,11,17,8,-4,92,74,43,30.44,30.00,8,1,11,0.17
2013-1-29,30,25,20,29,24,18,97,94,88,30.15,30.00,10,2,18,0.06
2013-1-30,52,41,30,51,40,30,98,97,95,30.06,29.33,18,4,42,0.15
2013-1-31,51,32,18,51,28,11,99,83,67,29.47,28.86,18,6,46,0.95
2013-2-1,18,14,9,11,7,2,84,72,63,30.02,29.46,20,5,51,0.01
2013-2-2,18,12,5,9,3,-3,85,69,55,30.18,30.01,10,2,25,0.00
2013-2-3,22,15,7,11,8,4,86,73,55,30.02,29.72,7,1,12,0.00
2013-2-4,16,13,9,10,6,2,84,74,60,29.88,29.70,10,2,25,0.00
2013-2-5,22,14,4,14,6,1,87,71,56,29.98,29.88,5,0,18,0.00
2013-2-6,25,19,13,19,10,-1,93,71,47,30.24,29.87,11,3,23,0.00
2013-2-7,21,14,5,6,1,-4,68,57,46,30.47,30.25,8,1,16,0.00
2013-2-8,19,16,12,16,11,4,92,83,58,30.41,29.77,13,3,22,0.42
2013-2-9,15,10,6,13,6,-2,91,83,68,30.25,29.76,30,9,46,0.25
2013-2-10,35,20,7,7,2,-3,68,47,23,30.46,30.25,19,3,26,0.00
2013-2-11,41,29,19,39,22,0,97,78,35,30.29,29.61,16,4,24,0.23
2013-2-12,30,28,24,26,24,20,90,86,80,29.82,29.58,14,6,33,0.00
2013-2-13,28,25,21,21,19,16,87,79,69,29.81,29.70,9,2,19,0.00
2013-2-14,35,27,20,22,18,15,82,71,55,29.93,29.69,8,1,18,0.00
2013-2-15,40,33,28,27,24,19,91,70,57,29.91,29.85,10,2,24,0.01
2013-2-16,28,23,16,23,15,5,87,73,60,29.91,29.73,12,3,19,0.00
2013-2-17,16,10,3,5,0,-5,83,64,54,29.73,29.50,31,9,37,0.00
2013-2-18,19,10,2,1,-3,-6,72,56,37,30.16,29.73,20,6,39,0.00
2013-2-19,32,26,12,31,16,-2,96,67,37,30.17,29.55,15,3,19,0.15
2013-2-20,31,18,14,29,14,10,92,84,76,29.76,29.55,14,4,27,0.01
2013-2-21,20,15,10,15,9,5,85,77,67,30.28,29.71,22,7,29,0.00
2013-2-22,33,25,17,19,17,14,88,73,57,30.39,30.25,18,4,27,0.00
2013-2-23,27,25,23,26,24,19,96,93,76,30.24,29.89,10,3,16,0.10
2013-2-24,33,29,25,30,27,23,95,93,88,29.88,29.71,9,1,16,0.16
2013-2-25,30,26,23,28,23,20,92,87,80,30.21,29.88,10,2,20,0.00
2013-2-26,32,28,24,27,24,21,92,86,78,30.29,30.10,10,3,15,0.00
2013-2-27,31,28,26,30,27,23,97,95,88,30.10,29.60,10,3,21,0.83
2013-2-28,34,30,26,34,30,25,98,97,96,29.59,29.52,7,1,14,0.07
2013-3-1,34,29,24,30,25,21,96,86,69,29.67,29.52,15,5,23,0.00
2013-3-2,30,25,20,24,21,17,91,85,76,29.67,29.63,18,5,26,0.00
2013-3-3,29,22,19,22,18,15,89,84,76,29.64,29.59,15,4,22,0.00
2013-3-4,28,21,17,20,17,14,89,83,71,29.80,29.62,18,5,29,0.00
2013-3-5,35,28,21,26,22,17,92,79,67,30.06,29.80,12,4,21,0.00
2013-3-6,29,27,24,27,25,22,95,90,83,30.11,30.01,19,6,31,0.03
2013-3-7,30,26,23,26,23,20,94,89,78,30.09,30.03,20,7,26,0.06
2013-3-8,33,28,23,30,24,20,96,85,68,30.22,29.98,22,8,26,0.29
2013-3-9,49,38,29,22,17,11,69,46,25,30.29,30.19,12,4,21,0.00
2013-3-10,47,36,25,28,22,15,74,57,40,30.32,30.19,13,4,21,0.00
2013-3-11,50,38,30,35,27,20,91,69,32,30.20,30.02,18,3,29,0.00
2013-3-12,44,40,32,44,40,31,98,97,91,30.02,29.66,13,5,22,1.16
2013-3-13,36,32,26,31,23,16,94,73,51,29.75,29.70,12,3,26,0.00
2013-3-14,26,17,12,21,11,5,88,77,65,29.82,29.68,16,4,28,0.01
2013-3-15,27,20,12,23,11,2,87,69,38,29.83,29.62,22,5,33,0.04
2013-3-16,29,21,14,19,11,7,85,65,42,29.85,29.69,10,2,20,0.00
2013-3-17,25,19,12,14,6,1,83,60,40,30.28,29.86,16,4,37,0.00
2013-3-18,29,18,4,18,2,-6,91,51,31,30.41,30.17,14,3,19,0.06
2013-3-19,26,23,20,25,22,17,94,93,91,30.14,29.69,8,2,18,0.82
2013-3-20,24,20,17,21,17,15,93,89,81,29.77,29.66,10,4,27,0.03
2013-3-21,29,21,15,18,13,11,94,72,49,29.77,29.60,7,2,22,0.00
2013-3-22,28,21,15,20,15,9,87,78,64,29.74,29.61,10,3,25,0.01
2013-3-23,32,25,20,19,17,15,90,73,56,29.80,29.67,18,5,35,0.02
2013-3-24,35,28,23,22,19,18,80,71,59,29.83,29.74,15,3,21,0.00
2013-3-25,33,29,23,24,21,18,81,74,67,29.76,29.51,9,3,15,0.00
2013-3-26,37,30,26,27,22,18,92,71,51,29.79,29.56,13,4,21,0.00
2013-3-27,43,34,28,30,24,18,88,68,49,29.87,29.77,9,3,21,0.03
2013-3-28,41,34,30,30,28,26,90,78,63,30.02,29.86,12,3,19,0.01
2013-3-29,42,36,31,32,29,26,86,77,57,30.04,29.98,11,3,19,0.03
2013-3-30,46,37,30,27,22,16,84,58,34,30.07,30.01,12,3,19,0.00
2013-3-31,47,36,26,33,23,15,96,60,39,30.07,29.68,21,4,34,0.23
2013-4-1,46,33,22,37,27,10,96,80,51,29.74,29.50,16,3,28,0.22
2013-4-2,25,21,18,16,12,9,77,67,56,29.91,29.74,16,5,33,0.00
2013-4-3,33,24,18,14,12,8,76,61,37,30.14,29.88,14,5,31,0.00
2013-4-4,43,32,19,20,16,13,80,54,35,30.26,29.95,19,4,31,0.00
2013-4-5,45,37,28,25,20,16,70,52,35,29.95,29.67,11,3,25,0.00
2013-4-6,37,27,19,17,9,5,65,48,29,30.29,29.85,18,4,26,0.00
2013-4-7,48,36,26,37,23,8,88,61,40,30.27,29.92,15,5,31,0.01
2013-4-8,57,45,36,37,32,27,84,64,34,30.04,29.93,13,2,24,0.00
2013-4-9,53,46,40,46,39,33,95,79,60,29.98,29.80,18,2,25,0.24
2013-4-10,52,44,39,46,42,37,97,91,74,29.94,29.81,8,1,10,1.08
2013-4-11,40,35,29,39,31,25,96,87,73,30.10,29.80,9,2,13,0.05
2013-4-12,30,28,26,27,26,24,96,93,83,30.10,29.82,8,1,13,0.73
2013-4-13,43,34,28,35,31,27,97,87,71,29.91,29.79,7,0,12,0.05
2013-4-14,38,34,30,31,27,23,92,77,64,30.20,29.89,9,2,23,0.04
2013-4-15,50,39,27,33,28,22,81,66,49,30.34,30.19,10,2,15,0.00
2013-4-16,55,45,35,50,39,28,96,81,62,30.30,30.01,19,5,46,0.36
2013-4-17,52,44,37,41,33,26,92,67,42,30.31,30.04,9,2,21,0.01
2013-4-18,53,44,36,42,30,24,90,60,47,30.35,30.05,25,5,33,0.00
2013-4-19,62,54,43,57,51,41,98,92,74,30.04,29.52,14,4,35,0.76
2013-4-20,44,37,28,42,30,17,93,75,54,30.19,29.54,15,4,26,0.15
2013-4-21,42,32,23,19,16,11,74,54,30,30.64,30.19,15,4,25,0.00
2013-4-22,48,37,29,26,20,13,82,51,36,30.70,30.53,13,4,23,0.00
2013-4-23,36,32,27,35,29,23,95,89,84,30.53,30.17,7,1,11,0.00
2013-4-24,69,53,34,49,40,27,97,66,25,30.15,29.67,14,2,26,0.00
2013-4-25,55,42,33,49,30,22,92,65,40,30.24,29.67,14,4,31,0.11
2013-4-26,53,44,36,32,26,21,64,50,39,30.38,30.24,18,2,19,0.00
2013-4-27,60,48,37,34,29,25,77,51,29,30.38,30.24,9,2,14,0.00
2013-4-28,64,52,39,38,32,25,64,48,34,30.27,30.11,12,3,21,0.00
2013-4-29,59,49,42,41,35,26,66,58,45,30.19,30.13,14,4,26,0.00
2013-4-30,65,53,44,39,34,26,67,48,37,30.27,30.18,13,2,15,0.00
2013-5-1,67,56,42,36,31,26,60,41,22,30.40,30.27,9,2,15,0.00
2013-5-2,74,59,47,41,36,26,67,44,28,30.38,30.25,11,2,15,0.00
2013-5-3,61,49,37,41,35,26,81,59,40,30.42,30.31,13,3,16,0.00
2013-5-4,66,55,43,43,37,24,84,55,31,30.34,30.17,11,2,19,0.00
2013-5-5,65,53,38,34,29,22,64,42,21,30.22,30.14,10,2,19,0.00
2013-5-6,68,55,38,41,32,24,73,46,23,30.18,30.06,9,2,15,0.00
2013-5-7,73,61,46,50,43,36,87,56,28,30.09,30.00,10,2,20,0.00
2013-5-8,63,56,50,56,53,48,98,90,72,30.10,29.97,11,3,21,0.96
2013-5-9,62,54,50,55,52,49,98,90,67,29.97,29.82,9,1,13,0.28
2013-5-10,69,61,50,57,51,48,95,71,50,29.91,29.80,9,2,16,0.00
2013-5-11,60,57,52,59,54,49,96,90,76,29.79,29.60,10,3,25,0.31
2013-5-12,56,47,37,49,38,25,93,71,43,29.76,29.55,13,2,22,0.00
2013-5-13,42,36,33,29,26,24,78,68,53,30.04,29.75,16,4,27,0.00
2013-5-14,48,40,33,30,27,25,75,60,44,30.04,29.98,13,2,16,0.00
2013-5-15,54,43,30,48,35,25,97,76,44,30.02,29.63,22,4,28,0.14
2013-5-16,68,58,49,47,39,31,86,51,31,29.76,29.63,18,4,46,0.00
2013-5-17,60,50,41,40,37,34,84,62,41,30.19,29.77,12,4,22,0.00
2013-5-18,66,55,42,44,38,33,78,55,35,30.25,30.17,11,1,16,0.00
2013-5-19,59,51,44,51,47,41,97,87,72,30.25,30.12,11,3,22,0.07
2013-5-20,70,61,50,62,57,49,98,87,73,30.11,29.92,11,2,21,0.00
2013-5-21,79,66,50,65,59,49,98,80,55,29.93,29.75,9,2,25,1.27
2013-5-22,74,65,49,67,62,48,98,90,71,29.83,29.76,10,2,14,1.27
2013-5-23,73,64,60,64,62,59,98,92,74,29.77,29.65,12,3,19,0.09
2013-5-24,60,50,38,60,48,37,98,94,87,29.83,29.57,15,5,30,0.74
2013-5-25,40,37,34,38,36,32,95,94,90,29.83,29.77,23,7,39,0.51
2013-5-26,47,39,33,40,36,32,95,90,76,30.07,29.75,22,5,35,0.12
2013-5-27,62,51,39,42,37,33,87,62,41,30.14,30.07,12,2,24,0.00
2013-5-28,66,55,42,50,41,34,86,61,42,30.18,30.08,10,2,18,0.00
2013-5-29,70,59,51,64,57,50,98,93,78,30.07,29.91,10,2,27,0.62
2013-5-30,78,70,61,66,63,59,93,78,62,30.04,29.97,11,2,23,0.00
2013-5-31,83,75,60,66,62,57,92,66,44,30.03,29.88,10,1,19,0.00
2013-6-1,84,76,69,66,63,60,79,64,49,29.89,29.76,11,2,20,0.00
2013-6-2,81,71,62,69,65,60,93,81,58,29.77,29.61,12,3,45,0.30
2013-6-3,64,58,47,59,52,34,94,79,60,29.80,29.69,13,2,21,0.00
2013-6-4,63,52,42,47,41,34,82,66,49,30.07,29.78,15,3,22,0.00
2013-6-5,65,56,46,47,42,38,85,62,41,30.14,30.05,7,1,13,0.00
2013-6-6,63,56,47,51,44,35,95,67,52,30.11,30.01,10,3,24,0.17
2013-6-7,49,47,45,48,46,44,97,96,94,30.01,29.82,11,1,11,1.42
2013-6-8,64,55,47,58,52,46,97,91,77,29.98,29.68,11,2,20,0.35
2013-6-9,68,60,52,56,53,50,93,79,61,30.13,29.98,9,1,15,0.00
2013-6-10,64,57,52,56,53,47,97,86,66,30.14,29.91,10,2,18,0.66
2013-6-11,57,53,51,56,52,50,98,96,94,29.90,29.52,9,1,26,1.52
2013-6-12,61,54,50,53,50,47,96,88,69,29.81,29.54,23,4,26,0.05
2013-6-13,55,50,46,51,48,45,97,94,84,29.79,29.66,8,1,14,0.91
2013-6-14,67,56,46,56,50,45,96,80,56,29.80,29.64,16,2,20,0.00
2013-6-15,67,60,52,51,46,42,85,62,44,29.90,29.80,7,1,21,0.00
2013-6-16,66,58,52,58,51,42,94,77,63,29.89,29.66,15,2,25,0.13
2013-6-17,72,63,57,62,58,53,94,83,58,29.84,29.74,11,1,23,0.13
2013-6-18,66,56,49,59,53,46,97,89,75,29.89,29.81,6,0,10,0.00
2013-6-19,64,55,45,48,44,36,91,66,46,30.13,29.89,8,2,15,0.00
2013-6-20,70,59,44,52,45,36,85,63,33,30.21,30.13,9,1,16,0.00
2013-6-21,76,66,54,56,52,44,87,63,36,30.20,30.15,7,1,14,0.00
2013-6-22,77,68,58,63,59,49,91,74,55,30.16,30.03,8,1,25,0.00
2013-6-23,83,74,66,70,65,60,84,73,57,30.07,29.90,10,2,20,0.00
2013-6-24,81,71,63,70,65,60,93,81,63,29.94,29.84,11,2,19,0.21
2013-6-25,81,71,65,69,64,59,94,80,59,29.88,29.68,10,2,19,0.12
2013-6-26,72,66,61,66,64,60,96,90,82,29.77,29.66,9,1,19,0.05
2013-6-27,76,68,58,68,64,58,98,88,72,29.77,29.61,14,2,18,0.05
2013-6-28,75,65,58,68,62,58,98,91,72,29.61,29.39,8,2,18,2.30
2013-6-29,76,68,61,66,62,59,98,83,60,29.61,29.41,11,2,25,0.00
2013-6-30,78,68,63,68,64,60,97,85,67,29.85,29.62,7,1,14,0.06
2013-7-1,71,66,63,68,65,62,98,96,89,29.98,29.86,6,0,9,0.46
2013-7-2,78,70,66,72,68,65,98,93,76,30.07,29.96,9,2,20,0.10
2013-7-3,79,72,68,70,68,66,96,86,72,30.11,30.05,11,2,20,0.02
2013-7-4,84,76,68,72,69,66,93,80,62,30.12,30.02,13,2,21,0.00
2013-7-5,84,75,67,73,70,66,97,84,65,30.07,29.97,6,1,21,1.30
2013-7-6,78,72,69,70,66,59,94,81,62,30.01,29.95,10,2,20,0.00
2013-7-7,83,73,67,72,66,59,95,80,62,29.98,29.85,6,0,16,0.03
2013-7-8,77,70,67,69,66,65,96,87,70,29.96,29.84,5,-13,13,0.00
2013-7-9,75,68,66,71,67,64,98,94,83,30.00,29.95,6,1,22,1.68
2013-7-10,77,69,66,73,68,65,99,94,82,29.96,29.72,10,2,25,0.51
2013-7-11,76,70,62,68,64,55,91,81,63,29.91,29.68,10,2,24,0.00
2013-7-12,74,65,60,63,58,55,90,78,64,30.13,29.91,8,2,11,0.00
2013-7-13,67,64,58,66,60,54,98,87,71,30.25,30.14,4,0,9,0.03
2013-7-14,79,72,65,70,67,64,98,85,67,30.27,30.16,8,0,11,0.00
2013-7-15,83,75,67,70,67,62,95,78,58,30.16,30.07,9,1,14,0.00
2013-7-16,82,74,66,68,64,61,87,72,54,30.12,30.08,12,2,18,0.00
2013-7-17,84,76,65,71,67,63,94,75,58,30.12,29.93,10,1,16,0.00
2013-7-18,84,78,70,72,70,66,92,76,63,29.95,29.86,9,1,19,0.00
2013-7-19,85,77,67,74,67,-100,91,74,62,29.86,29.64,18,-9,28,0.08
2013-7-20,77,70,61,69,63,59,93,78,65,29.76,29.63,15,2,27,0.02
2013-7-21,76,67,58,63,60,56,94,78,59,29.93,29.76,9,1,15,0.00
2013-7-22,76,67,58,67,62,56,97,85,69,29.94,29.79,11,2,19,0.05
2013-7-23,74,67,62,70,64,61,98,92,76,29.78,29.50,6,1,14,2.55
2013-7-24,71,64,52,63,57,-100,96,81,62,29.89,29.53,12,2,18,0.00
2013-7-25,66,53,46,57,41,-100,91,75,68,30.05,29.90,6,1,15,0.00
2013-7-26,68,60,55,59,54,50,92,81,59,30.03,29.94,9,1,13,0.00
2013-7-27,76,65,52,62,57,49,95,77,48,30.00,29.91,10,1,13,0.00
2013-7-28,72,64,57,66,61,56,97,92,73,29.93,29.89,9,1,13,0.17
2013-7-29,74,66,59,65,60,52,98,83,60,30.01,29.90,9,1,16,0.03
2013-7-30,70,62,53,58,54,50,90,76,59,30.06,29.99,12,1,18,0.00
2013-7-31,74,63,53,60,56,52,94,77,54,30.09,29.98,6,0,10,0.00
2013-8-1,69,60,54,62,57,52,97,91,78,29.98,29.79,10,2,20,0.19
2013-8-2,72,64,58,61,57,54,98,79,57,29.80,29.73,7,1,23,0.00
2013-8-3,60,57,54,55,54,52,94,89,85,29.80,29.73,7,1,12,0.00
2013-12-30,24,15,7,20,10,2,87,79,76,30.06,29.78,6,3,14,0.01
2013-12-31,15,12,9,11,6,2,85,78,74,30.15,30.06,7,5,20,0.00
2014-1-2,6,3,0,2,-1,-3,84,84,82,30.05,29.94,5,3,8,0.35